createdAt,value
2022-12-26T00:01:51.540Z,100871.63
2022-12-26T00:04:48.931Z,100856.59
2022-12-26T00:07:10.206Z,100859.19
2022-12-26T00:09:38.491Z,100864.50
2022-12-26T00:12:07.346Z,100860.91
2022-12-26T00:14:35.643Z,100868.06
2022-12-26T00:17:03.985Z,100866.22
2022-12-26T00:19:32.279Z,100875.09
2022-12-26T00:22:00.574Z,100876.91
2022-12-26T00:24:30.245Z,100876.06
2022-12-26T00:26:59.036Z,100855.84
2022-12-26T00:29:27.680Z,100881.28
2022-12-26T00:31:55.998Z,100874.22
2022-12-26T00:34:24.301Z,100883.03
2022-12-26T00:36:52.577Z,100880.41
2022-12-26T00:39:20.885Z,100888.38
2022-12-26T00:41:50.562Z,100876.03
2022-12-26T00:44:18.948Z,100872.53
2022-12-26T00:46:47.260Z,100882.19
2022-12-26T00:49:15.600Z,100879.53
2022-12-26T00:51:44.040Z,100842.66
2022-12-26T00:54:12.381Z,100871.69
2022-12-26T00:56:40.644Z,100861.97
2022-12-26T00:59:10.358Z,100865.50
2022-12-26T01:01:38.844Z,100867.34
2022-12-26T01:04:07.301Z,100840.03
2022-12-26T01:06:35.839Z,100861.16
2022-12-26T01:09:04.204Z,100849.75
2022-12-26T01:11:41.714Z,100848.81
2022-12-26T01:14:16.052Z,100825.97
2022-12-26T01:16:46.878Z,100856.75
2022-12-26T01:19:15.917Z,100854.09
2022-12-26T01:21:44.224Z,100854.97
2022-12-26T01:24:13.830Z,100847.03
2022-12-26T01:26:42.183Z,100826.81
2022-12-26T01:29:11.793Z,100822.53
2022-12-26T01:31:40.108Z,100860.28
2022-12-26T01:34:09.791Z,100861.16
2022-12-26T01:36:38.059Z,100864.72
2022-12-26T01:39:06.358Z,100867.34
2022-12-26T01:41:34.838Z,100857.75
2022-12-26T01:44:05.727Z,100865.63
2022-12-26T01:46:40.822Z,100856.81
2022-12-26T01:49:16.475Z,100870.00
2022-12-26T01:51:52.464Z,100870.81
2022-12-26T01:54:38.270Z,100879.66
2022-12-26T01:57:17.094Z,100872.56
2022-12-26T01:59:48.491Z,100864.69
2022-12-26T02:02:19.422Z,100855.84
2022-12-26T02:05:09.754Z,100862.06
2022-12-26T02:07:42.283Z,100859.41
2022-12-26T02:10:16.882Z,100858.50
2022-12-26T02:12:46.549Z,100872.63
2022-12-26T02:15:18.815Z,100869.09
2022-12-26T02:17:50.071Z,100861.22
2022-12-26T02:20:22.631Z,100865.63
2022-12-26T02:23:42.109Z,100843.66
2022-12-26T02:27:11.103Z,100848.84
2022-12-26T02:30:11.748Z,100854.13
2022-12-26T02:33:47.111Z,100847.06
2022-12-26T02:36:48.183Z,100857.72
2022-12-26T02:39:43.609Z,100857.72
2022-12-26T02:42:26.503Z,100848.94
2022-12-26T02:45:17.440Z,100864.78
2022-12-26T02:47:57.067Z,100863.97
2022-12-26T02:50:55.462Z,100869.28
2022-12-26T02:53:48.936Z,100875.47
2022-12-26T02:56:42.709Z,100834.25
2022-12-26T02:59:55.777Z,100867.59
2022-12-26T03:02:49.883Z,100810.53
2022-12-26T03:05:45.657Z,100871.19
2022-12-26T03:08:50.722Z,100877.34
2022-12-26T03:11:37.075Z,100887.97
2022-12-26T03:14:17.640Z,100873.06
2022-12-26T03:17:08.932Z,100873.06
2022-12-26T03:19:58.130Z,100884.50
2022-12-26T03:22:35.391Z,100808.81
2022-12-26T03:25:26.863Z,100849.31
2022-12-26T03:27:55.825Z,100837.00
2022-12-26T03:30:41.662Z,100846.66
2022-12-26T03:33:30.533Z,100837.00
2022-12-26T03:35:58.955Z,100840.47
2022-12-26T03:38:36.574Z,100810.63
2022-12-26T03:41:42.286Z,100832.56
2022-12-26T03:44:41.639Z,100833.44
2022-12-26T03:47:38.958Z,100849.34
2022-12-26T03:50:49.248Z,100811.59
2022-12-26T03:53:41.971Z,100840.56
2022-12-26T03:56:38.451Z,100847.66
2022-12-26T03:59:37.451Z,100842.38
2022-12-26T04:02:26.464Z,100837.13
2022-12-26T04:05:15.203Z,100830.97
2022-12-26T04:08:07.133Z,100845.03
2022-12-26T04:10:57.554Z,100779.16
2022-12-26T04:13:49.205Z,100837.19
2022-12-26T04:16:39.842Z,100822.25
2022-12-26T04:19:25.929Z,100857.47
2022-12-26T04:22:21.211Z,100867.16
2022-12-26T04:25:14.898Z,100836.41
2022-12-26T04:28:01.414Z,100870.72
2022-12-26T04:30:53.006Z,100870.66
2022-12-26T04:33:47.124Z,100846.06
2022-12-26T04:36:41.252Z,100852.16
2022-12-26T04:39:30.711Z,100825.78
2022-12-26T04:42:17.909Z,100825.78
2022-12-26T04:44:50.042Z,100857.44
2022-12-26T04:47:19.812Z,100858.34
2022-12-26T04:50:05.491Z,100834.50
2022-12-26T04:52:47.829Z,100805.50
2022-12-26T04:55:16.551Z,100824.78
2022-12-26T04:57:45.015Z,100808.09
2022-12-26T05:00:15.037Z,100827.44
2022-12-26T05:03:02.974Z,100832.72
2022-12-26T05:06:10.020Z,100847.69
2022-12-26T05:09:00.046Z,100836.22
2022-12-26T05:11:30.380Z,100814.31
2022-12-26T05:13:59.983Z,100849.44
2022-12-26T05:16:49.212Z,100822.94
2022-12-26T05:19:36.740Z,100844.94
2022-12-26T05:22:23.771Z,100846.72
2022-12-26T05:25:10.797Z,100835.25
2022-12-26T05:28:01.318Z,100824.72
2022-12-26T05:30:29.993Z,100826.47
2022-12-26T05:33:15.811Z,100831.75
2022-12-26T05:35:45.574Z,100844.09
2022-12-26T05:38:13.977Z,100826.44
2022-12-26T05:40:42.244Z,100829.09
2022-12-26T05:43:10.530Z,100832.59
2022-12-26T05:45:38.895Z,100841.44
2022-12-26T05:48:07.671Z,100806.25
2022-12-26T05:50:35.937Z,100841.47
2022-12-26T05:53:05.842Z,100819.41
2022-12-26T05:55:34.231Z,100842.34
2022-12-26T05:58:02.988Z,100835.28
2022-12-26T06:00:32.355Z,100831.72
2022-12-26T06:03:02.158Z,100841.47
2022-12-26T06:05:30.959Z,100850.25
2022-12-26T06:07:59.345Z,100835.31
2022-12-26T06:10:29.831Z,100824.78
2022-12-26T06:12:58.512Z,100841.44
2022-12-26T06:15:26.818Z,100852.91
2022-12-26T06:17:56.703Z,100850.25
2022-12-26T06:20:25.002Z,100840.63
2022-12-26T06:22:53.367Z,100855.63
2022-12-26T06:25:21.770Z,100846.78
2022-12-26T06:27:51.560Z,100844.97
2022-12-26T06:30:19.899Z,100853.78
2022-12-26T06:32:48.220Z,100662.22
2022-12-26T06:35:16.728Z,100839.72
2022-12-26T06:37:45.197Z,100807.22
2022-12-26T06:40:14.717Z,100806.31
2022-12-26T06:42:43.122Z,100852.94
2022-12-26T06:45:13.220Z,100839.72
2022-12-26T06:47:41.612Z,100860.00
2022-12-26T06:50:10.952Z,100859.09
2022-12-26T06:52:39.373Z,100857.28
2022-12-26T06:55:08.663Z,100852.88
2022-12-26T06:57:37.032Z,100842.31
2022-12-26T07:00:06.693Z,100855.53
2022-12-26T07:02:36.589Z,100845.91
2022-12-26T07:05:06.316Z,100838.78
2022-12-26T07:07:34.753Z,100837.84
2022-12-26T07:10:03.137Z,100844.94
2022-12-26T07:12:31.614Z,100819.47
2022-12-26T07:15:01.999Z,100867.84
2022-12-26T07:17:30.559Z,100857.28
2022-12-26T07:20:00.303Z,100870.50
2022-12-26T07:22:29.616Z,100846.69
2022-12-26T07:24:57.946Z,100815.97
2022-12-26T07:27:26.780Z,100736.94
2022-12-26T07:29:55.310Z,100881.13
2022-12-26T07:32:23.673Z,100874.09
2022-12-26T07:34:52.151Z,100876.78
2022-12-26T07:37:21.882Z,100864.44
2022-12-26T07:39:53.753Z,100875.00
2022-12-26T07:42:27.098Z,100874.09
2022-12-26T07:44:55.524Z,100867.03
2022-12-26T07:47:23.825Z,100874.09
2022-12-26T07:49:52.166Z,100866.16
2022-12-26T07:52:23.091Z,100845.97
2022-12-26T07:54:51.484Z,100869.66
2022-12-26T07:57:47.400Z,100892.59
2022-12-26T08:00:11.451Z,100891.63
2022-12-26T08:02:42.868Z,100903.16
2022-12-26T08:05:11.424Z,100932.25
2022-12-26T08:07:41.312Z,100940.13
2022-12-26T08:10:10.558Z,100943.66
2022-12-26T08:12:39.760Z,100938.41
2022-12-26T08:15:10.702Z,100950.78
2022-12-26T08:17:39.065Z,100956.13
2022-12-26T08:20:08.700Z,100943.03
2022-12-26T08:22:37.197Z,100941.25
2022-12-26T08:25:08.789Z,100944.81
2022-12-26T08:27:37.162Z,100967.66
2022-12-26T08:30:06.600Z,100967.66
2022-12-26T08:32:36.229Z,100975.56
2022-12-26T08:35:08.043Z,100899.00
2022-12-26T08:37:36.458Z,100992.25
2022-12-26T08:40:07.609Z,100991.41
2022-12-26T08:42:44.615Z,101005.44
2022-12-26T08:45:25.029Z,101016.94
2022-12-26T08:47:55.445Z,100967.63
2022-12-26T08:50:24.785Z,101037.19
2022-12-26T08:52:53.424Z,101030.22
2022-12-26T08:55:23.146Z,101054.91
2022-12-26T08:57:51.579Z,101070.81
2022-12-26T09:00:23.914Z,101071.72
2022-12-26T09:02:53.679Z,101072.53
2022-12-26T09:05:22.253Z,101097.19
2022-12-26T09:07:50.746Z,101092.78
2022-12-26T09:10:19.145Z,101108.56
2022-12-26T09:12:48.834Z,101132.34
2022-12-26T09:15:17.276Z,101114.75
2022-12-26T09:17:45.648Z,101130.56
2022-12-26T09:20:14.019Z,101126.03
2022-12-26T09:22:51.750Z,101149.72
2022-12-26T09:25:20.772Z,101158.56
2022-12-26T09:27:58.793Z,101152.28
2022-12-26T09:30:27.979Z,101170.81
2022-12-26T09:32:56.692Z,101161.03
2022-12-26T09:35:25.028Z,101176.81
2022-12-26T09:37:53.438Z,101193.53
2022-12-26T09:40:25.981Z,101084.06
2022-12-26T09:43:06.714Z,101202.25
2022-12-26T09:45:55.238Z,101211.88
2022-12-26T09:48:33.255Z,101220.69
2022-12-26T09:51:01.823Z,101204.03
2022-12-26T09:53:36.650Z,101189.00
2022-12-26T09:56:18.242Z,101224.06
2022-12-26T09:58:57.422Z,101196.75
2022-12-26T10:01:29.676Z,101207.41
2022-12-26T10:04:00.819Z,101232.97
2022-12-26T10:06:37.127Z,101226.03
2022-12-26T10:09:46.742Z,101248.09
2022-12-26T10:12:34.117Z,101236.75
2022-12-26T10:15:16.354Z,101232.88
2022-12-26T10:17:54.149Z,101188.78
2022-12-26T10:20:33.883Z,101227.78
2022-12-26T10:23:30.458Z,101202.13
2022-12-26T10:26:07.151Z,101251.50
2022-12-26T10:28:40.750Z,101270.00
2022-12-26T10:31:20.674Z,101268.25
2022-12-26T10:33:55.037Z,101245.91
2022-12-26T10:36:34.082Z,101281.38
2022-12-26T10:39:06.355Z,101199.09
2022-12-26T10:41:43.359Z,101290.06
2022-12-26T10:44:13.058Z,101292.72
2022-12-26T10:47:15.526Z,101298.09
2022-12-26T10:49:46.647Z,101308.78
2022-12-26T10:52:18.212Z,101287.53
2022-12-26T10:54:51.856Z,101307.81
2022-12-26T10:57:42.362Z,101291.09
2022-12-26T11:00:20.516Z,101310.63
2022-12-26T11:03:05.784Z,101320.41
2022-12-26T11:08:31.439Z,101322.50
2022-12-26T11:11:06.617Z,101232.41
2022-12-26T11:13:42.368Z,101332.31
2022-12-26T11:16:11.846Z,101318.97
2022-12-26T11:18:50.150Z,101337.50
2022-12-26T11:21:25.733Z,101302.31
2022-12-26T11:24:12.017Z,101350.94
2022-12-26T11:26:40.561Z,101328.78
2022-12-26T11:29:14.859Z,101367.41
2022-12-26T11:31:52.345Z,101372.63
2022-12-26T11:34:32.564Z,101370.78
2022-12-26T11:37:01.370Z,101382.19
2022-12-26T11:39:34.753Z,101379.53
2022-12-26T11:42:11.830Z,101358.31
2022-12-26T11:44:45.479Z,101366.50
2022-12-26T11:47:16.213Z,101361.41
2022-12-26T11:49:55.813Z,101374.63
2022-12-26T11:52:52.752Z,101371.19
2022-12-26T11:55:34.455Z,101375.47
2022-12-26T11:58:16.553Z,101387.94
2022-12-26T12:01:06.125Z,101388.72
2022-12-26T12:03:40.060Z,101390.63
2022-12-26T12:06:47.197Z,101391.34
2022-12-26T12:09:24.942Z,101402.03
2022-12-26T12:12:02.701Z,101385.22
2022-12-26T12:14:52.639Z,101400.25
2022-12-26T12:17:28.789Z,101402.00
2022-12-26T12:20:18.763Z,101408.88
2022-12-26T12:23:15.670Z,101410.44
2022-12-26T12:25:59.993Z,101411.13
2022-12-26T12:28:57.677Z,101428.25
2022-12-26T12:31:37.337Z,101419.50
2022-12-26T12:34:20.676Z,101416.94
2022-12-26T12:37:06.679Z,101416.06
2022-12-26T12:39:47.618Z,101406.13
2022-12-26T12:42:36.476Z,101413.09
2022-12-26T12:45:27.068Z,101413.88
2022-12-26T12:48:21.331Z,101422.88
2022-12-26T12:50:58.028Z,101431.66
2022-12-26T12:53:44.950Z,101398.97
2022-12-26T12:56:25.932Z,101393.72
2022-12-26T12:59:05.478Z,101441.38
2022-12-26T13:01:39.677Z,101441.53
2022-12-26T13:04:14.431Z,101422.94
2022-12-26T13:06:48.830Z,101353.09
2022-12-26T13:09:21.537Z,101441.41
2022-12-26T13:11:58.208Z,101429.06
2022-12-26T13:14:32.335Z,101444.94
2022-12-26T13:17:08.988Z,101407.81
2022-12-26T13:19:42.817Z,101437.88
2022-12-26T13:22:18.466Z,101466.25
2022-12-26T13:24:52.283Z,101394.59
2022-12-26T13:27:28.123Z,101458.31
2022-12-26T13:29:56.517Z,101465.31
2022-12-26T13:32:27.921Z,101448.44
2022-12-26T13:34:58.547Z,101446.53
2022-12-26T13:37:55.625Z,101473.28
2022-12-26T13:40:29.142Z,101469.78
2022-12-26T13:43:22.022Z,101470.59
2022-12-26T13:45:56.586Z,101468.00
2022-12-26T13:49:26.665Z,101480.38
2022-12-26T13:51:59.405Z,101467.97
2022-12-26T13:54:30.150Z,101448.59
2022-12-26T13:57:36.486Z,101481.94
2022-12-26T14:00:24.274Z,101484.41
2022-12-26T14:03:42.885Z,101472.78
2022-12-26T14:06:41.930Z,101454.88
2022-12-26T14:09:23.738Z,101498.28
2022-12-26T14:12:18.025Z,101383.22
2022-12-26T14:15:04.972Z,101506.13
2022-12-26T14:17:44.272Z,101497.16
2022-12-26T14:20:39.428Z,101504.19
2022-12-26T14:23:28.794Z,101520.16
2022-12-26T14:26:05.734Z,101493.69
2022-12-26T14:28:58.433Z,101532.53
2022-12-26T14:31:37.769Z,101540.69
2022-12-26T14:34:22.575Z,101535.09
2022-12-26T14:37:00.158Z,101526.03
2022-12-26T14:39:40.139Z,101542.28
2022-12-26T14:42:40.518Z,101545.19
2022-12-26T14:45:39.355Z,101493.97
2022-12-26T14:48:41.989Z,101547.91
2022-12-26T14:51:37.692Z,101554.09
2022-12-26T14:54:50.897Z,101532.06
2022-12-26T14:57:48.699Z,101546.25
2022-12-26T15:00:34.368Z,101554.22
2022-12-26T15:03:52.017Z,101565.59
2022-12-26T15:07:00.462Z,101543.59
2022-12-26T15:09:58.333Z,101549.91
2022-12-26T15:13:26.824Z,101487.09
2022-12-26T15:16:31.105Z,101570.44
2022-12-26T15:20:06.526Z,101566.09
2022-12-26T15:23:31.210Z,101545.59
2022-12-26T15:26:25.933Z,101579.19
2022-12-26T15:29:23.929Z,101579.97
2022-12-26T15:32:12.572Z,101582.59
2022-12-26T15:34:54.410Z,101591.47
2022-12-26T15:37:51.643Z,101600.13
2022-12-26T15:40:25.583Z,101586.03
2022-12-26T15:43:26.312Z,101550.69
2022-12-26T15:46:09.151Z,101602.75
2022-12-26T15:48:57.532Z,101596.44
2022-12-26T15:51:42.429Z,101574.34
2022-12-26T15:54:39.530Z,101607.09
2022-12-26T15:57:17.424Z,101606.16
2022-12-26T16:00:17.042Z,101609.72
2022-12-26T16:03:03.273Z,101600.94
2022-12-26T16:05:41.733Z,101577.81
2022-12-26T16:08:44.947Z,101615.84
2022-12-26T16:11:20.518Z,101596.44
2022-12-26T16:13:57.165Z,101598.09
2022-12-26T16:16:34.636Z,101625.50
2022-12-26T16:19:20.735Z,101616.75
2022-12-26T16:22:13.340Z,101629.06
2022-12-26T16:24:43.315Z,101624.75
2022-12-26T16:27:18.610Z,101590.09
2022-12-26T16:29:49.576Z,101636.97
2022-12-26T16:32:22.835Z,101514.72
2022-12-26T16:34:51.563Z,101629.97
2022-12-26T16:37:24.038Z,101636.22
2022-12-26T16:40:18.124Z,101628.22
2022-12-26T16:42:56.523Z,101590.13
2022-12-26T16:45:26.185Z,101618.56
2022-12-26T16:47:56.904Z,101622.88
2022-12-26T16:50:28.598Z,101628.97
2022-12-26T16:53:13.939Z,101626.38
2022-12-26T16:55:46.452Z,101633.34
2022-12-26T16:58:20.504Z,101625.34
2022-12-26T17:01:10.811Z,101630.53
2022-12-26T17:03:50.377Z,101640.97
2022-12-26T17:06:25.023Z,101639.13
2022-12-26T17:08:54.290Z,101527.47
2022-12-26T17:11:30.859Z,101647.13
2022-12-26T17:14:01.143Z,101639.97
2022-12-26T17:16:32.245Z,101665.84
2022-12-26T17:19:18.802Z,101672.88
2022-12-26T17:22:23.034Z,101671.16
2022-12-26T17:24:52.963Z,101663.16
2022-12-26T17:27:24.359Z,101674.59
2022-12-26T17:29:57.072Z,101673.88
2022-12-26T17:32:33.240Z,101677.44
2022-12-26T17:35:07.007Z,101646.41
2022-12-26T17:37:35.692Z,101677.41
2022-12-26T17:40:22.595Z,101657.03
2022-12-26T17:42:53.093Z,101682.78
2022-12-26T17:45:24.185Z,101556.75
2022-12-26T17:47:53.301Z,101687.16
2022-12-26T17:50:25.188Z,101658.88
2022-12-26T17:52:53.759Z,101693.38
2022-12-26T17:55:26.932Z,101703.91
2022-12-26T17:57:55.349Z,101692.44
2022-12-26T18:00:27.325Z,101680.78
2022-12-26T18:02:57.989Z,101700.19
2022-12-26T18:05:27.591Z,101693.94
2022-12-26T18:07:56.858Z,101703.66
2022-12-26T18:10:29.745Z,101694.09
2022-12-26T18:12:59.404Z,101715.25
2022-12-26T18:15:30.138Z,101697.41
2022-12-26T18:17:58.414Z,101660.97
2022-12-26T18:20:30.544Z,101704.34
2022-12-26T18:22:59.171Z,101694.75
2022-12-26T18:25:29.021Z,101720.38
2022-12-26T18:27:57.545Z,101713.22
2022-12-26T18:30:27.499Z,101735.38
2022-12-26T18:32:56.200Z,101728.34
2022-12-26T18:35:24.608Z,101725.72
2022-12-26T18:37:55.187Z,101738.03
2022-12-26T18:40:32.332Z,101731.69
2022-12-26T18:43:01.075Z,101736.09
2022-12-26T18:45:29.873Z,101739.66
2022-12-26T18:47:59.139Z,101649.19
2022-12-26T18:50:28.640Z,101752.13
2022-12-26T18:52:58.751Z,101762.72
2022-12-26T18:55:28.674Z,101759.88
2022-12-26T18:57:57.511Z,101763.50
2022-12-26T19:00:26.599Z,101768.72
2022-12-26T19:02:55.825Z,101769.69
2022-12-26T19:05:27.467Z,101731.44
2022-12-26T19:07:58.363Z,101678.16
2022-12-26T19:10:29.412Z,101773.19
2022-12-26T19:13:05.072Z,101777.56
2022-12-26T19:15:35.998Z,101772.44
2022-12-26T19:18:05.888Z,101775.97
2022-12-26T19:20:37.752Z,101778.66
2022-12-26T19:23:12.291Z,101777.72
2022-12-26T19:25:40.675Z,101441.44
2022-12-26T19:28:09.084Z,101780.56
2022-12-26T19:30:39.245Z,101774.44
2022-12-26T19:33:07.817Z,101774.34
2022-12-26T19:35:36.211Z,101773.38
2022-12-26T19:38:04.692Z,101769.81
2022-12-26T19:40:34.510Z,101769.91
2022-12-26T19:43:02.955Z,101782.28
2022-12-26T19:45:31.317Z,101781.47
2022-12-26T19:47:59.712Z,101781.41
2022-12-26T19:50:28.115Z,101694.38
2022-12-26T19:52:56.571Z,101791.09
2022-12-26T19:55:25.018Z,101780.53
2022-12-26T19:57:54.761Z,101783.09
2022-12-26T20:00:23.191Z,101788.41
2022-12-26T20:02:51.622Z,101784.84
2022-12-26T20:05:20.099Z,101788.44
2022-12-26T20:07:48.500Z,101779.66
2022-12-26T20:10:16.938Z,101781.38
2022-12-26T20:12:45.290Z,101791.03
2022-12-26T20:15:14.985Z,101787.34
2022-12-26T20:17:43.401Z,101789.22
2022-12-26T20:20:11.884Z,101792.81
2022-12-26T20:22:40.298Z,101790.28
2022-12-26T20:25:10.048Z,101790.94
2022-12-26T20:27:40.613Z,101802.53
2022-12-26T20:30:10.548Z,101788.31
2022-12-26T20:32:44.000Z,101806.16
2022-12-26T20:35:12.381Z,101803.44
2022-12-26T20:37:40.671Z,101801.75
2022-12-26T20:40:10.558Z,101805.13
2022-12-26T20:42:38.960Z,101813.16
2022-12-26T20:45:09.065Z,101814.69
2022-12-26T20:47:39.184Z,101816.50
2022-12-26T20:50:08.930Z,101820.81
2022-12-26T20:52:37.384Z,101821.69
2022-12-26T20:55:06.924Z,101831.25
2022-12-26T20:57:35.221Z,101827.16
2022-12-26T21:00:03.972Z,101840.31
2022-12-26T21:02:32.490Z,101842.13
2022-12-26T21:05:02.393Z,101850.06
2022-12-26T21:07:33.447Z,101854.34
2022-12-26T21:10:01.977Z,101847.41
2022-12-26T21:12:30.346Z,101844.78
2022-12-26T21:14:58.639Z,101849.31
2022-12-26T21:17:27.083Z,101852.53
2022-12-26T21:19:55.373Z,101849.94
2022-12-26T21:22:26.243Z,101849.03
2022-12-26T21:24:54.574Z,101866.84
2022-12-26T21:27:22.962Z,101877.50
2022-12-26T21:29:51.378Z,101869.56
2022-12-26T21:32:19.995Z,101878.41
2022-12-26T21:34:48.317Z,101870.59
2022-12-26T21:37:34.321Z,101872.31
2022-12-26T21:40:05.554Z,101805.47
2022-12-26T21:42:33.914Z,101883.69
2022-12-26T21:45:02.358Z,101887.25
2022-12-26T21:47:30.719Z,101895.19
2022-12-26T21:49:59.082Z,101882.78
2022-12-26T21:52:27.655Z,101864.72
2022-12-26T21:55:13.319Z,101890.63
2022-12-26T21:57:43.120Z,101886.25
2022-12-26T22:00:14.636Z,101890.50
2022-12-26T22:03:00.768Z,101889.47
2022-12-26T22:05:31.555Z,101903.41
2022-12-26T22:08:01.362Z,101908.91
2022-12-26T22:10:50.064Z,101905.44
2022-12-26T22:13:21.733Z,101910.63
2022-12-26T22:16:07.863Z,101911.72
2022-12-26T22:18:40.314Z,101910.84
2022-12-26T22:21:11.967Z,101873.38
2022-12-26T22:23:41.590Z,101914.94
2022-12-26T22:26:12.594Z,101894.47
2022-12-26T22:28:43.560Z,101917.50
2022-12-26T22:31:21.173Z,101914.91
2022-12-26T22:33:55.254Z,101917.28
2022-12-26T22:36:23.823Z,101919.25
2022-12-26T22:38:52.373Z,101920.03
2022-12-26T22:41:20.914Z,101918.41
2022-12-26T22:43:51.040Z,101878.31
2022-12-26T22:46:20.164Z,101920.78
2022-12-26T22:48:48.637Z,101934.13
2022-12-26T22:51:19.587Z,101936.81
2022-12-26T22:53:48.754Z,101939.09
2022-12-26T22:56:17.120Z,101941.94
2022-12-26T22:58:45.416Z,101932.41
2022-12-26T23:01:17.514Z,101942.97
2022-12-26T23:03:46.420Z,101943.81
2022-12-26T23:06:21.958Z,101947.38
2022-12-26T23:08:52.982Z,101900.38
2022-12-26T23:11:22.207Z,101949.00
2022-12-26T23:13:51.591Z,101948.03
2022-12-26T23:16:29.980Z,101931.09
2022-12-26T23:19:20.037Z,101819.84
2022-12-26T23:21:51.570Z,101952.53
2022-12-26T23:24:22.946Z,101955.13
2022-12-26T23:26:53.742Z,101954.91
2022-12-26T23:29:42.557Z,101958.63
2022-12-26T23:32:13.245Z,101947.94
2022-12-26T23:34:41.348Z,101953.31
2022-12-26T23:37:09.634Z,101890.09
2022-12-26T23:39:37.968Z,101810.75
2022-12-26T23:42:06.716Z,101925.47
2022-12-26T23:44:35.154Z,101937.94
2022-12-26T23:47:03.729Z,101959.31
2022-12-26T23:49:33.478Z,101959.25
2022-12-26T23:52:02.182Z,101954.88
2022-12-26T23:54:30.625Z,101961.78
2022-12-26T23:56:59.324Z,101953.91
2022-12-26T23:59:27.931Z,101945.91
